Time;durP1;ratioP1;P1;durP2;ratioP2;P2;SDS_P1;SDS_P2;PMS_P1;PMS_P2;Temp;Humidity;BMP_temperature;BMP_pressure;BME280_temperature;BME280_humidity;BME280_pressure;Samples;Min_cycle;Max_cycle;Signal;HPM_P1;HPM_P2
2020/12/10 00:02:11;;;;;;;10.27;6.75;;;-1.10;70.70;;;;;;5033000;28;20386;-63
2020/12/10 00:04:37;;;;;;;16.00;7.55;;;-1.10;71.00;;;;;;5032753;28;20048;-63
2020/12/10 00:07:03;;;;;;;10.95;6.90;;;-1.00;71.20;;;;;;5033180;28;20021;-63
2020/12/10 00:09:29;;;;;;;10.07;6.60;;;-1.00;71.50;;;;;;5032627;28;20064;-63
2020/12/10 00:11:55;;;;;;;12.60;7.30;;;-0.90;71.40;;;;;;5033343;28;20033;-63
2020/12/10 00:14:21;;;;;;;11.02;6.97;;;-0.90;71.10;;;;;;5032427;28;20716;-63
2020/12/10 00:16:48;;;;;;;12.35;7.82;;;-0.90;71.00;;;;;;5032625;28;20025;-63
2020/12/10 00:19:13;;;;;;;13.35;7.53;;;-0.90;71.20;;;;;;5032036;28;20369;-63
2020/12/10 00:21:39;;;;;;;15.10;8.65;;;-0.90;71.40;;;;;;5033234;28;20030;-63
2020/12/10 00:24:05;;;;;;;14.85;8.43;;;-0.80;71.10;;;;;;5032236;28;20060;-63
2020/12/10 00:26:31;;;;;;;12.63;7.38;;;-0.90;71.40;;;;;;5032658;28;20049;-63
2020/12/10 00:28:56;;;;;;;12.45;7.90;;;-0.80;71.40;;;;;;5032179;28;20042;-63
2020/12/10 00:31:22;;;;;;;13.65;7.72;;;-0.80;71.30;;;;;;5032679;28;20020;-63
2020/12/10 00:33:48;;;;;;;10.25;6.85;;;-0.80;71.30;;;;;;5032637;28;20029;-63
2020/12/10 00:36:14;;;;;;;12.02;8.32;;;-0.80;71.30;;;;;;5032336;28;20438;-63
2020/12/10 00:38:40;;;;;;;10.55;6.75;;;-0.80;71.50;;;;;;5032016;28;20104;-63
2020/12/10 00:41:06;;;;;;;13.43;7.97;;;-0.80;71.40;;;;;;5032023;28;20108;-63
2020/12/10 00:43:32;;;;;;;12.68;7.80;;;-0.80;71.50;;;;;;5032256;28;20021;-63
2020/12/10 00:46:05;;;;;;;14.15;8.13;;;-0.70;71.60;;;;;;5032746;28;20017;-63
2020/12/10 00:48:32;;;;;;;16.25;9.18;;;-0.70;71.50;;;;;;5028736;28;20365;-63
2020/12/10 00:50:58;;;;;;;11.40;7.22;;;-0.70;71.20;;;;;;5029651;28;20486;-63
2020/12/10 00:53:24;;;;;;;13.05;8.20;;;-0.70;71.00;;;;;;5032134;28;20057;-63
2020/12/10 00:55:53;;;;;;;14.35;8.43;;;-0.70;70.90;;;;;;5032280;28;20053;-63
2020/12/10 00:58:19;;;;;;;12.50;7.88;;;-0.70;70.90;;;;;;5032394;28;20500;-63
2020/12/10 01:00:45;;;;;;;15.82;8.48;;;-0.70;70.90;;;;;;5032380;28;20026;-63
2020/12/10 01:03:10;;;;;;;12.65;7.65;;;-0.70;71.20;;;;;;5032043;28;20417;-63
2020/12/10 01:05:36;;;;;;;14.80;8.75;;;-0.70;71.40;;;;;;5031866;28;20100;-63
2020/12/10 01:08:02;;;;;;;12.52;7.35;;;-0.70;71.60;;;;;;5031859;28;20079;-63
2020/12/10 01:10:27;;;;;;;14.27;7.97;;;-0.70;71.50;;;;;;5032520;28;20057;-63
2020/12/10 01:12:53;;;;;;;17.50;9.35;;;-0.60;71.50;;;;;;5032356;28;20026;-63
2020/12/10 01:15:19;;;;;;;13.70;8.60;;;-0.60;71.30;;;;;;5031843;28;20025;-63
2020/12/10 01:17:44;;;;;;;14.70;9.43;;;-0.60;71.20;;;;;;5032102;28;20378;-63
2020/12/10 01:20:10;;;;;;;14.32;8.85;;;-0.70;71.10;;;;;;5032317;28;20021;-63
2020/12/10 01:22:37;;;;;;;17.30;8.25;;;-0.70;71.10;;;;;;5031998;28;20037;-63
2020/12/10 01:25:03;;;;;;;16.67;10.10;;;-0.70;71.40;;;;;;5032240;28;20128;-63
2020/12/10 01:27:29;;;;;;;15.70;9.68;;;-0.70;71.50;;;;;;5032166;28;20050;-62
2020/12/10 01:29:55;;;;;;;17.75;10.05;;;-0.70;71.60;;;;;;5034885;28;20043;-63
2020/12/10 01:32:24;;;;;;;14.25;8.30;;;-0.70;71.60;;;;;;5035915;28;20029;-62
2020/12/10 01:34:50;;;;;;;19.95;9.52;;;-0.70;71.80;;;;;;5028742;28;20026;-62
2020/12/10 01:37:17;;;;;;;16.77;9.32;;;-0.70;71.70;;;;;;5035337;28;20033;-62
2020/12/10 01:39:43;;;;;;;12.15;8.15;;;-0.70;71.20;;;;;;5035733;28;20022;-62
2020/12/10 01:42:09;;;;;;;14.35;9.10;;;-0.70;71.40;;;;;;5033052;28;20071;-62
2020/12/10 01:44:35;;;;;;;16.45;8.32;;;-0.70;71.70;;;;;;5035659;28;20033;-63
2020/12/10 01:47:01;;;;;;;14.73;8.82;;;-0.80;71.80;;;;;;5035624;28;20097;-62
2020/12/10 01:49:26;;;;;;;15.95;8.85;;;-0.80;72.00;;;;;;5035510;28;20433;-62
2020/12/10 01:51:53;;;;;;;14.45;9.85;;;-0.80;72.10;;;;;;5032966;28;20053;-62
2020/12/10 01:54:19;;;;;;;14.57;8.82;;;-0.80;71.80;;;;;;5035763;28;20033;-62
2020/12/10 01:56:45;;;;;;;13.45;7.90;;;-0.90;71.90;;;;;;5035411;28;20025;-62
2020/12/10 01:59:13;;;;;;;12.77;8.60;;;-0.90;72.00;;;;;;5034068;28;20463;-62
2020/12/10 02:01:38;;;;;;;11.05;7.93;;;-1.00;71.90;;;;;;5031070;28;20457;-62
2020/12/10 02:04:25;;;;;;;13.77;7.63;;;-1.00;71.50;;;;;;5035639;28;20059;-62
2020/12/10 02:06:51;;;;;;;16.05;7.75;;;-1.10;71.90;;;;;;5031891;28;20448;-62
2020/12/10 02:09:17;;;;;;;14.10;8.32;;;-1.10;72.00;;;;;;5034869;28;20060;-62
2020/12/10 02:11:42;;;;;;;13.25;8.52;;;-1.10;72.70;;;;;;5034757;28;20465;-62
2020/12/10 02:14:08;;;;;;;13.38;8.27;;;-1.10;71.70;;;;;;5034459;28;20026;-62
2020/12/10 02:16:34;;;;;;;16.98;9.20;;;-1.10;71.90;;;;;;5035229;28;20034;-62
2020/12/10 02:18:59;;;;;;;14.10;8.68;;;-1.10;71.80;;;;;;5034831;28;20566;-61
2020/12/10 02:21:25;;;;;;;13.30;7.88;;;-1.20;71.60;;;;;;5034841;28;20029;-62
2020/12/10 02:23:54;;;;;;;15.23;8.20;;;-1.20;72.00;;;;;;5035040;28;20112;-61
2020/12/10 02:26:22;;;;;;;11.20;7.10;;;-1.20;72.00;;;;;;5034810;28;20033;-62
2020/12/10 02:28:48;;;;;;;14.68;8.77;;;-1.10;72.00;;;;;;5027008;28;20172;-62
2020/12/10 02:31:22;;;;;;;12.48;7.70;;;-1.10;71.80;;;;;;5034821;28;20060;-62
2020/12/10 02:33:48;;;;;;;12.13;7.30;;;-1.20;71.80;;;;;;5034339;28;20036;-62
2020/12/10 02:36:14;;;;;;;15.50;8.57;;;-1.10;72.10;;;;;;5034665;28;20025;-62
2020/12/10 02:38:40;;;;;;;12.48;8.15;;;-1.10;72.10;;;;;;5034581;28;20036;-62
2020/12/10 02:41:05;;;;;;;15.68;9.32;;;-1.10;71.90;;;;;;5034049;28;20025;-61
2020/12/10 02:43:31;;;;;;;13.68;8.27;;;-1.10;71.60;;;;;;5034339;28;20056;-61
2020/12/10 02:45:57;;;;;;;13.75;8.40;;;-1.20;71.70;;;;;;5034721;28;20041;-62
2020/12/10 02:48:23;;;;;;;11.73;7.32;;;-1.20;72.00;;;;;;5032831;28;20448;-61
2020/12/10 02:50:48;;;;;;;12.68;7.65;;;-1.20;71.90;;;;;;5033704;28;20408;-62
2020/12/10 02:53:14;;;;;;;13.88;8.88;;;-1.20;71.90;;;;;;5034275;28;20105;-61
2020/12/10 02:55:40;;;;;;;12.00;8.20;;;-1.20;71.90;;;;;;5034214;28;20033;-62
2020/12/10 02:58:05;;;;;;;14.73;8.27;;;-1.20;71.70;;;;;;5034021;28;20409;-61
2020/12/10 03:00:31;;;;;;;13.43;8.10;;;-1.20;72.10;;;;;;5034216;28;20029;-62
2020/12/10 03:02:57;;;;;;;12.65;8.23;;;-1.20;72.40;;;;;;5033911;28;20022;-62
2020/12/10 03:05:22;;;;;;;14.05;8.80;;;-1.20;72.70;;;;;;5033659;28;20056;-61
2020/12/10 03:07:48;;;;;;;14.95;9.27;;;-1.20;73.00;;;;;;5034208;28;20017;-61
2020/12/10 03:10:14;;;;;;;15.35;8.82;;;-1.20;72.80;;;;;;5034155;28;20017;-61
2020/12/10 03:12:39;;;;;;;13.07;8.77;;;-1.10;72.80;;;;;;5034166;28;20442;-61
2020/12/10 03:15:05;;;;;;;15.43;9.13;;;-1.20;72.60;;;;;;5033796;28;20040;-61
2020/12/10 03:17:31;;;;;;;15.02;8.50;;;-1.10;72.70;;;;;;5033436;28;20031;-62
2020/12/10 03:19:57;;;;;;;13.73;8.88;;;-1.20;72.70;;;;;;5033672;28;20119;-61
2020/12/10 03:22:22;;;;;;;13.05;8.77;;;-1.10;73.20;;;;;;5033241;28;20025;-61
2020/12/10 03:24:48;;;;;;;14.30;8.80;;;-1.10;73.10;;;;;;5033487;28;20042;-62
2020/12/10 03:27:14;;;;;;;18.35;8.90;;;-1.10;72.90;;;;;;5033681;28;20045;-60
2020/12/10 03:29:40;;;;;;;14.40;8.82;;;-1.00;72.80;;;;;;5033596;28;20045;-62
2020/12/10 03:32:06;;;;;;;13.55;8.63;;;-1.00;72.80;;;;;;5033572;28;20024;-61
2020/12/10 03:34:32;;;;;;;17.70;9.45;;;-1.00;73.20;;;;;;5033859;28;20045;-62
2020/12/10 03:37:00;;;;;;;15.85;9.68;;;-0.90;73.00;;;;;;5033356;28;20025;-61
2020/12/10 03:39:28;;;;;;;15.70;9.60;;;-1.00;72.80;;;;;;5033748;28;20089;-62
2020/12/10 03:41:55;;;;;;;18.13;9.75;;;-1.00;72.80;;;;;;5029605;28;20025;-61
2020/12/10 03:44:21;;;;;;;11.77;7.40;;;-1.00;72.70;;;;;;5033492;28;20041;-60
2020/12/10 03:46:46;;;;;;;15.40;9.45;;;-1.10;72.70;;;;;;5033409;28;20456;-62
2020/12/10 03:49:12;;;;;;;14.95;8.82;;;-1.10;72.70;;;;;;5033370;28;20104;-62
2020/12/10 03:51:38;;;;;;;15.18;8.90;;;-1.20;73.20;;;;;;5030958;28;20480;-61
2020/12/10 03:54:04;;;;;;;13.40;8.85;;;-1.20;72.80;;;;;;5033202;28;20025;-61
2020/12/10 03:56:31;;;;;;;14.80;9.35;;;-1.20;73.00;;;;;;5033100;28;20091;-61
2020/12/10 03:59:00;;;;;;;17.33;9.27;;;-1.20;72.90;;;;;;5032637;28;20025;-61
2020/12/10 04:01:27;;;;;;;12.75;9.05;;;-1.30;73.00;;;;;;5031171;28;20025;-61
2020/12/10 04:03:53;;;;;;;18.55;9.77;;;-1.30;73.40;;;;;;5033112;28;20064;-61
2020/12/10 04:06:18;;;;;;;19.35;9.57;;;-1.40;73.30;;;;;;5032644;28;20029;-62
2020/12/10 04:08:44;;;;;;;16.27;9.48;;;-1.40;73.30;;;;;;5032917;28;20088;-61
2020/12/10 04:11:10;;;;;;;16.60;9.25;;;-1.40;73.30;;;;;;5032777;28;20422;-61
2020/12/10 04:13:36;;;;;;;13.73;7.90;;;-1.50;73.20;;;;;;5032875;28;20039;-60
2020/12/10 04:16:03;;;;;;;11.50;7.32;;;-1.50;73.20;;;;;;5033162;28;20099;-62
2020/12/10 04:18:29;;;;;;;14.40;8.43;;;-1.60;73.20;;;;;;5025967;28;20032;-61
2020/12/10 04:20:55;;;;;;;15.23;8.90;;;-1.60;73.40;;;;;;5032528;28;20397;-60
2020/12/10 04:23:21;;;;;;;14.35;8.57;;;-1.60;73.30;;;;;;5031338;28;20030;-61
2020/12/10 04:25:52;;;;;;;15.52;8.60;;;-1.70;73.60;;;;;;5032683;28;20049;-61
2020/12/10 04:28:18;;;;;;;14.55;8.88;;;-1.70;73.60;;;;;;5032355;28;20038;-61
2020/12/10 04:30:43;;;;;;;13.02;8.13;;;-1.70;73.90;;;;;;5032783;28;20041;-61
2020/12/10 04:33:09;;;;;;;14.75;8.82;;;-1.70;73.80;;;;;;5032960;28;20128;-61
2020/12/10 04:35:35;;;;;;;12.70;8.18;;;-1.70;73.90;;;;;;5021717;28;20025;-61
2020/12/10 04:38:01;;;;;;;14.20;7.97;;;-1.70;74.00;;;;;;5030161;28;20025;-61
2020/12/10 04:40:27;;;;;;;15.43;8.68;;;-1.70;73.90;;;;;;5032945;28;20111;-61
2020/12/10 04:42:54;;;;;;;13.68;9.02;;;-1.80;73.80;;;;;;5029507;28;20025;-61
2020/12/10 04:45:20;;;;;;;14.07;8.48;;;-1.80;73.80;;;;;;5032656;28;20484;-62
2020/12/10 04:47:46;;;;;;;15.60;9.05;;;-1.80;73.90;;;;;;5032735;28;20021;-61
2020/12/10 04:50:19;;;;;;;16.80;9.15;;;-1.80;73.80;;;;;;5031522;28;20382;-61
2020/12/10 04:52:45;;;;;;;15.32;8.88;;;-1.90;73.80;;;;;;5032427;28;20457;-60
2020/12/10 04:55:11;;;;;;;16.38;8.23;;;-1.90;74.00;;;;;;5031651;28;20442;-61
2020/12/10 04:57:40;;;;;;;12.75;8.13;;;-1.90;74.10;;;;;;5032497;28;20029;-61
2020/12/10 05:00:07;;;;;;;12.75;8.05;;;-1.90;74.20;;;;;;5032430;28;20398;-61
2020/12/10 05:02:32;;;;;;;12.02;7.57;;;-1.90;74.60;;;;;;5033642;28;20025;-61
2020/12/10 05:04:58;;;;;;;14.40;8.20;;;-1.80;74.80;;;;;;5036238;28;20464;-61
2020/12/10 05:07:39;;;;;;;15.35;8.85;;;-1.80;74.80;;;;;;5036354;28;20026;-61
2020/12/10 05:10:05;;;;;;;13.98;8.88;;;-1.70;74.60;;;;;;5036459;28;20025;-61
2020/12/10 05:12:31;;;;;;;10.68;7.30;;;-1.70;74.90;;;;;;5036075;28;20022;-61
2020/12/10 05:14:57;;;;;;;13.45;8.00;;;-1.70;75.00;;;;;;5036131;28;20022;-61
2020/12/10 05:17:22;;;;;;;16.13;9.30;;;-1.60;75.00;;;;;;5036607;28;20111;-61
2020/12/10 05:19:56;;;;;;;10.82;8.27;;;-1.50;75.10;;;;;;5035640;28;20061;-61
2020/12/10 05:22:22;;;;;;;15.63;10.35;;;-1.40;74.70;;;;;;5035787;28;20489;-61
2020/12/10 05:24:57;;;;;;;16.67;8.63;;;-1.30;74.80;;;;;;5035845;28;20053;-61
2020/12/10 05:27:23;;;;;;;17.60;10.25;;;-1.20;75.10;;;;;;5025748;28;20056;-61
2020/12/10 05:29:51;;;;;;;16.67;8.95;;;-1.10;74.80;;;;;;5036027;28;20497;-61
2020/12/10 05:32:34;;;;;;;14.40;9.10;;;-1.00;74.60;;;;;;5035934;28;20021;-61
2020/12/10 05:35:22;;;;;;;15.98;9.73;;;-0.80;74.20;;;;;;5035609;28;20041;-60
2020/12/10 05:37:50;;;;;;;18.90;9.45;;;-0.80;73.40;;;;;;5034651;28;20080;-61
2020/12/10 05:40:16;;;;;;;16.05;9.90;;;-0.70;73.20;;;;;;5035989;28;20385;-61
2020/12/10 05:42:44;;;;;;;18.17;9.63;;;-0.80;72.70;;;;;;5035752;28;20022;-61
2020/12/10 05:45:10;;;;;;;15.82;9.13;;;-0.80;72.80;;;;;;5035676;28;20464;-61
2020/12/10 05:47:45;;;;;;;16.58;10.50;;;-0.80;72.70;;;;;;5035901;28;20017;-62
2020/12/10 05:50:12;;;;;;;18.67;9.93;;;-0.80;72.90;;;;;;5035128;28;20424;-61
2020/12/10 05:52:43;;;;;;;19.10;9.90;;;-0.70;72.60;;;;;;5034886;28;20017;-62
2020/12/10 05:55:09;;;;;;;21.40;12.20;;;-0.80;72.40;;;;;;5035234;28;20033;-62
2020/12/10 05:57:41;;;;;;;19.05;12.10;;;-0.80;72.50;;;;;;5035798;28;20269;-62
2020/12/10 06:00:06;;;;;;;19.27;10.63;;;-0.80;72.50;;;;;;5035665;28;20044;-62
2020/12/10 06:02:35;;;;;;;20.33;10.85;;;-0.80;72.70;;;;;;5026425;28;20029;-62
2020/12/10 06:05:01;;;;;;;17.13;9.27;;;-0.70;72.80;;;;;;5035045;28;20037;-63
2020/12/10 06:07:27;;;;;;;21.33;11.82;;;-0.60;72.90;;;;;;5034643;28;20029;-63
2020/12/10 06:09:54;;;;;;;16.92;10.32;;;-0.60;72.60;;;;;;5032205;28;20350;-62
2020/12/10 06:12:24;;;;;;;15.93;9.52;;;-0.50;72.70;;;;;;5031527;28;20026;-61
2020/12/10 06:14:54;;;;;;;22.25;11.80;;;-0.40;72.70;;;;;;5027945;28;20033;-61
2020/12/10 06:17:21;;;;;;;19.15;10.65;;;-0.40;72.40;;;;;;5030312;28;20029;-62
2020/12/10 06:19:47;;;;;;;17.40;10.85;;;-0.30;72.20;;;;;;5032321;28;20029;-63
2020/12/10 06:22:30;;;;;;;18.13;10.40;;;-0.30;72.00;;;;;;5029780;28;20029;-62
2020/12/10 06:24:58;;;;;;;20.05;11.00;;;-0.30;72.10;;;;;;5028415;28;20051;-62
2020/12/10 06:27:33;;;;;;;17.48;11.27;;;-0.30;72.20;;;;;;5029904;28;20092;-61
2020/12/10 06:30:20;;;;;;;19.38;10.50;;;-0.30;72.10;;;;;;5020647;28;20069;-63
2020/12/10 06:32:52;;;;;;;15.70;9.63;;;-0.30;72.30;;;;;;5030160;28;20049;-62
2020/12/10 06:35:35;;;;;;;17.27;9.40;;;-0.30;72.50;;;;;;5024037;28;20120;-62
2020/12/10 06:38:09;;;;;;;15.27;10.15;;;-0.30;72.20;;;;;;5022857;28;20033;-63
2020/12/10 06:40:36;;;;;;;19.75;10.70;;;-0.30;72.00;;;;;;5028290;28;20519;-64
2020/12/10 06:43:03;;;;;;;17.23;9.82;;;-0.30;72.10;;;;;;5020443;28;20026;-63
2020/12/10 06:45:34;;;;;;;16.08;9.57;;;-0.30;72.30;;;;;;5023360;28;20112;-62
2020/12/10 06:48:23;;;;;;;17.02;9.57;;;-0.30;72.60;;;;;;5024089;28;20029;-63
2020/12/10 06:50:49;;;;;;;16.38;9.35;;;-0.30;72.70;;;;;;5024773;28;20038;-62
2020/12/10 06:53:21;;;;;;;17.95;10.30;;;-0.20;72.70;;;;;;5018992;28;20044;-63
2020/12/10 06:56:00;;;;;;;18.25;9.85;;;-0.20;72.60;;;;;;5022084;28;20029;-62
2020/12/10 06:58:35;;;;;;;20.45;11.93;;;-0.20;72.60;;;;;;5023926;28;20026;-63
2020/12/10 07:01:26;;;;;;;21.67;11.75;;;-0.20;72.70;;;;;;5020885;28;21532;-63
2020/12/10 07:03:54;;;;;;;18.48;11.90;;;-0.20;72.70;;;;;;5020211;28;20077;-63
2020/12/10 07:06:21;;;;;;;21.52;12.10;;;-0.30;72.80;;;;;;5020355;28;20409;-63
2020/12/10 07:09:00;;;;;;;20.45;10.10;;;-0.30;73.00;;;;;;5018802;28;20081;-63
2020/12/10 07:11:52;;;;;;;18.58;11.60;;;-0.30;73.30;;;;;;5013918;28;20436;-63
2020/12/10 07:14:33;;;;;;;25.63;12.27;;;-0.30;73.30;;;;;;5016643;28;20042;-64
2020/12/10 07:17:02;;;;;;;18.88;10.77;;;-0.30;73.30;;;;;;5017444;28;20688;-62
2020/12/10 07:19:28;;;;;;;19.17;11.68;;;-0.40;73.40;;;;;;5020522;28;20033;-62
2020/12/10 07:21:54;;;;;;;23.83;11.55;;;-0.30;73.60;;;;;;5025912;28;20033;-61
2020/12/10 07:24:19;;;;;;;18.45;11.38;;;-0.30;73.90;;;;;;5023756;28;20033;-61
2020/12/10 07:26:45;;;;;;;22.02;11.38;;;-0.30;73.90;;;;;;5017816;28;20360;-61
2020/12/10 07:29:12;;;;;;;21.38;12.32;;;-0.30;73.90;;;;;;5020595;28;20044;-62
2020/12/10 07:31:38;;;;;;;20.73;12.30;;;-0.30;74.00;;;;;;5024880;28;20075;-62
2020/12/10 07:34:03;;;;;;;21.33;12.27;;;-0.30;73.70;;;;;;5022026;28;20448;-61
2020/12/10 07:36:31;;;;;;;21.33;11.75;;;-0.30;74.00;;;;;;5024651;28;20036;-61
2020/12/10 07:38:58;;;;;;;28.67;11.77;;;-0.30;74.60;;;;;;5020626;28;20049;-63
2020/12/10 07:41:23;;;;;;;17.85;11.05;;;-0.30;74.00;;;;;;5022808;28;20068;-63
2020/12/10 07:43:51;;;;;;;29.70;13.88;;;-0.20;74.40;;;;;;5020068;28;20163;-63
2020/12/10 07:46:18;;;;;;;24.83;13.55;;;-0.20;74.40;;;;;;5024874;28;20025;-62
2020/12/10 07:48:46;;;;;;;24.88;13.35;;;-0.20;74.40;;;;;;5014771;28;22636;-63
2020/12/10 07:51:19;;;;;;;20.63;13.00;;;-0.20;74.70;;;;;;5024365;28;20037;-63
2020/12/10 07:53:45;;;;;;;20.48;12.35;;;-0.20;74.60;;;;;;5016278;28;20033;-63
2020/12/10 07:56:20;;;;;;;24.77;13.52;;;-0.10;74.80;;;;;;5015346;28;20084;-63
2020/12/10 07:58:45;;;;;;;27.70;14.50;;;-0.10;74.80;;;;;;5019597;28;20029;-62
2020/12/10 08:01:12;;;;;;;29.83;13.55;;;-0.10;75.00;;;;;;5015412;28;20041;-63
2020/12/10 08:03:51;;;;;;;27.55;13.77;;;-0.20;75.20;;;;;;5020915;28;20041;-63
2020/12/10 08:06:17;;;;;;;25.33;15.38;;;-0.20;75.60;;;;;;5020936;28;20044;-63
2020/12/10 08:08:58;;;;;;;26.25;15.35;;;-0.20;75.60;;;;;;5015629;28;20082;-63
2020/12/10 08:11:25;;;;;;;24.08;14.35;;;-0.20;76.10;;;;;;5014565;28;20033;-63
2020/12/10 08:14:09;;;;;;;27.52;14.77;;;-0.20;76.20;;;;;;5015430;28;20120;-63
2020/12/10 08:16:45;;;;;;;20.55;11.77;;;-0.20;76.70;;;;;;5015599;28;20084;-63
2020/12/10 08:19:15;;;;;;;28.52;15.80;;;-0.10;76.10;;;;;;5019941;28;20037;-63
2020/12/10 08:21:46;;;;;;;24.13;13.48;;;-0.10;76.30;;;;;;5019242;28;20035;-63
2020/12/10 08:24:13;;;;;;;21.35;13.52;;;-0.10;75.90;;;;;;5013950;28;20037;-63
2020/12/10 08:26:40;;;;;;;29.13;15.20;;;-0.20;75.90;;;;;;5011994;28;20095;-63
2020/12/10 08:29:06;;;;;;;24.88;13.48;;;-0.20;76.00;;;;;;5013393;28;20045;-64
2020/12/10 08:31:33;;;;;;;31.75;17.27;;;-0.20;76.00;;;;;;5011954;28;20037;-63
2020/12/10 08:33:59;;;;;;;28.73;15.15;;;-0.30;76.20;;;;;;5036989;28;20040;-64
2020/12/10 08:36:30;;;;;;;26.88;15.65;;;-0.30;76.30;;;;;;5053340;28;20067;-64
2020/12/10 08:38:57;;;;;;;31.20;15.73;;;-0.40;76.20;;;;;;5049149;28;20067;-63
2020/12/10 08:41:25;;;;;;;24.45;14.20;;;-0.40;76.50;;;;;;5052852;28;20040;-64
2020/12/10 08:44:05;;;;;;;28.73;15.80;;;-0.50;76.50;;;;;;5052541;28;20128;-63
2020/12/10 08:46:32;;;;;;;30.00;15.52;;;-0.40;76.90;;;;;;5057711;28;20020;-63
2020/12/10 08:49:18;;;;;;;35.55;15.02;;;-0.50;77.00;;;;;;5057636;28;20079;-64
2020/12/10 08:51:46;;;;;;;32.45;15.90;;;-0.50;77.30;;;;;;5054392;28;20723;-63
2020/12/10 08:54:12;;;;;;;30.33;15.60;;;-0.60;77.30;;;;;;5057463;28;20033;-63
2020/12/10 08:56:38;;;;;;;27.52;14.68;;;-0.60;77.30;;;;;;5055167;28;20082;-63
2020/12/10 08:59:05;;;;;;;28.17;15.10;;;-0.60;77.30;;;;;;5041443;28;20032;-63
2020/12/10 09:01:32;;;;;;;32.15;15.85;;;-0.60;77.40;;;;;;5050690;28;20040;-63
2020/12/10 09:03:58;;;;;;;33.15;16.50;;;-0.60;77.80;;;;;;5052337;28;21240;-63
2020/12/10 09:06:34;;;;;;;31.30;16.75;;;-0.60;77.70;;;;;;5053886;28;20036;-64
2020/12/10 09:09:01;;;;;;;28.08;15.05;;;-0.60;77.70;;;;;;5039913;28;20025;-64
2020/12/10 09:11:27;;;;;;;34.25;23.35;;;-0.60;77.50;;;;;;5051567;28;20016;-64
2020/12/10 09:13:52;;;;;;;34.83;18.20;;;-0.60;77.70;;;;;;5050552;28;20036;-64
2020/12/10 09:16:18;;;;;;;31.08;18.35;;;-0.60;77.80;;;;;;5053525;28;20120;-64
2020/12/10 09:18:44;;;;;;;30.05;15.45;;;-0.60;77.60;;;;;;5053757;28;20033;-64
2020/12/10 09:21:09;;;;;;;29.50;15.77;;;-0.50;77.80;;;;;;5058582;28;20127;-64
2020/12/10 09:23:43;;;;;;;22.00;13.25;;;-0.60;77.40;;;;;;5051622;28;20036;-64
2020/12/10 09:26:10;;;;;;;29.55;14.23;;;-0.60;77.50;;;;;;5048995;28;20035;-64
2020/12/10 09:28:36;;;;;;;27.05;14.98;;;-0.60;77.40;;;;;;5049231;28;20362;-64
2020/12/10 09:31:01;;;;;;;36.05;18.23;;;-0.60;77.30;;;;;;5050775;28;20043;-63
2020/12/10 09:33:27;;;;;;;33.42;16.67;;;-0.60;77.60;;;;;;5051422;28;20036;-64
2020/12/10 09:35:53;;;;;;;27.27;13.30;;;-0.60;77.70;;;;;;5049954;28;20879;-64
2020/12/10 09:38:18;;;;;;;23.70;13.27;;;-0.60;77.60;;;;;;5055375;28;20112;-64
2020/12/10 09:40:44;;;;;;;26.08;16.13;;;-0.60;77.90;;;;;;5052731;28;20033;-64
2020/12/10 09:43:11;;;;;;;32.05;16.80;;;-0.50;77.80;;;;;;5052333;28;20033;-64
2020/12/10 09:45:37;;;;;;;27.33;15.02;;;-0.50;77.80;;;;;;5052954;28;20029;-64
2020/12/10 09:48:02;;;;;;;34.22;17.25;;;-0.50;77.70;;;;;;5051348;28;20032;-64
2020/12/10 09:50:31;;;;;;;26.25;14.63;;;-0.40;77.80;;;;;;5049421;28;22577;-64
2020/12/10 09:58:13;;;;;;;27.88;15.63;;;-0.40;77.40;;;;;;5052524;28;20039;-63
2020/12/10 10:00:38;;;;;;;26.42;14.00;;;-0.50;77.00;;;;;;5057764;28;20033;-63
2020/12/10 10:03:07;;;;;;;32.83;15.93;;;-0.50;77.40;;;;;;5053958;28;20040;-63
2020/12/10 10:05:33;;;;;;;26.65;14.80;;;-0.50;77.70;;;;;;5052221;28;20035;-64
2020/12/10 10:08:00;;;;;;;30.42;14.23;;;-0.50;78.10;;;;;;5051856;28;20025;-64
2020/12/10 10:10:26;;;;;;;20.83;13.18;;;-0.50;78.00;;;;;;5051525;28;20092;-64
2020/12/10 10:12:52;;;;;;;25.70;14.07;;;-0.50;77.80;;;;;;5051505;28;20150;-63
2020/12/10 10:15:18;;;;;;;28.58;14.55;;;-0.50;77.50;;;;;;5055164;28;20024;-63
2020/12/10 10:17:43;;;;;;;26.98;15.02;;;-0.40;77.70;;;;;;5055439;28;20032;-64
2020/12/10 10:20:10;;;;;;;30.17;15.90;;;-0.40;77.70;;;;;;5054057;28;20121;-63
2020/12/10 10:22:38;;;;;;;28.42;15.95;;;-0.40;77.70;;;;;;5055970;28;20531;-64
2020/12/10 10:25:05;;;;;;;27.90;13.38;;;-0.40;77.60;;;;;;5051387;28;20721;-64
2020/12/10 10:27:31;;;;;;;26.65;15.30;;;-0.50;77.70;;;;;;5043067;28;20045;-64
2020/12/10 10:29:56;;;;;;;22.15;15.18;;;-0.50;77.60;;;;;;5034297;28;20068;-64
2020/12/10 10:32:22;;;;;;;25.73;14.57;;;-0.50;77.60;;;;;;5029281;28;20144;-64
2020/12/10 10:34:48;;;;;;;31.25;15.55;;;-0.50;77.60;;;;;;5035315;28;20526;-64
2020/12/10 10:37:14;;;;;;;24.73;15.20;;;-0.50;77.90;;;;;;5017064;28;20124;-64
2020/12/10 10:39:39;;;;;;;27.80;15.07;;;-0.50;77.70;;;;;;5030196;28;20397;-65
2020/12/10 10:42:05;;;;;;;26.92;14.20;;;-0.50;77.80;;;;;;5032202;28;20040;-64
2020/12/10 10:44:31;;;;;;;26.98;14.70;;;-0.50;78.00;;;;;;5029136;28;20039;-64
2020/12/10 10:46:57;;;;;;;30.80;15.88;;;-0.50;77.80;;;;;;5032101;28;20025;-64
2020/12/10 10:49:23;;;;;;;29.48;16.08;;;-0.50;78.20;;;;;;5009891;28;20029;-64
2020/12/10 10:51:49;;;;;;;27.67;14.82;;;-0.50;78.30;;;;;;5028132;28;20981;-64
2020/12/10 10:54:15;;;;;;;27.30;15.13;;;-0.50;78.10;;;;;;5028175;28;20481;-64
2020/12/10 10:56:41;;;;;;;29.08;17.67;;;-0.50;78.00;;;;;;5029386;28;20400;-64
2020/12/10 10:59:07;;;;;;;33.95;16.08;;;-0.50;78.10;;;;;;5033056;28;20025;-64
2020/12/10 11:01:33;;;;;;;23.58;13.15;;;-0.50;77.40;;;;;;5025416;28;20700;-64
2020/12/10 11:03:59;;;;;;;25.13;13.07;;;-0.60;77.30;;;;;;5031726;28;20025;-64
2020/12/10 11:06:24;;;;;;;27.23;17.20;;;-0.60;77.30;;;;;;5027673;28;20032;-64
2020/12/10 11:08:50;;;;;;;39.13;25.80;;;-0.60;77.80;;;;;;5030888;28;20029;-64
2020/12/10 11:11:23;;;;;;;32.03;19.92;;;-0.60;78.10;;;;;;5030209;28;20059;-64
2020/12/10 11:13:49;;;;;;;36.38;23.77;;;-0.60;77.80;;;;;;5036089;28;20037;-64
2020/12/10 11:16:16;;;;;;;32.47;15.82;;;-0.60;77.60;;;;;;5040421;28;20033;-64
2020/12/10 11:18:42;;;;;;;25.70;14.35;;;-0.60;77.90;;;;;;5036936;28;20704;-64
2020/12/10 11:21:08;;;;;;;24.83;13.35;;;-0.60;77.70;;;;;;5021836;28;20032;-64
2020/12/10 11:23:35;;;;;;;25.48;14.75;;;-0.60;77.40;;;;;;5040843;28;20025;-64
2020/12/10 11:26:01;;;;;;;36.72;16.23;;;-0.60;77.60;;;;;;5037039;28;20052;-64
2020/12/10 11:28:28;;;;;;;27.00;14.65;;;-0.60;77.10;;;;;;5052180;28;21722;-64
2020/12/10 11:30:54;;;;;;;27.45;14.65;;;-0.60;77.50;;;;;;5057296;28;20032;-64
2020/12/10 11:33:20;;;;;;;26.10;15.82;;;-0.60;77.60;;;;;;5058793;28;20028;-64
2020/12/10 11:35:46;;;;;;;26.48;14.45;;;-0.60;77.50;;;;;;5062437;28;20052;-64
2020/12/10 11:38:11;;;;;;;28.00;16.63;;;-0.70;77.40;;;;;;5059993;28;20036;-64
2020/12/10 11:40:37;;;;;;;29.45;15.77;;;-0.60;77.70;;;;;;5042005;28;20041;-64
2020/12/10 11:43:03;;;;;;;29.95;14.27;;;-0.70;77.40;;;;;;5054266;28;20029;-64
2020/12/10 11:45:29;;;;;;;29.17;15.23;;;-0.70;78.00;;;;;;5056529;28;20040;-64
2020/12/10 11:47:55;;;;;;;27.08;15.70;;;-0.60;77.90;;;;;;5056303;28;20037;-64
2020/12/10 11:50:21;;;;;;;29.40;14.10;;;-0.60;77.80;;;;;;5061001;28;20551;-64
2020/12/10 11:52:52;;;;;;;29.20;15.25;;;-0.60;77.70;;;;;;5055866;28;20177;-64
2020/12/10 11:55:18;;;;;;;25.33;14.48;;;-0.60;77.90;;;;;;5053611;28;20113;-65
2020/12/10 11:57:45;;;;;;;21.55;13.10;;;-0.60;77.90;;;;;;5054386;28;20115;-65
2020/12/10 12:00:12;;;;;;;25.60;13.60;;;-0.50;78.00;;;;;;5053465;28;20040;-65
2020/12/10 12:02:39;;;;;;;29.63;15.30;;;-0.50;77.90;;;;;;5055298;28;20097;-64
2020/12/10 12:05:05;;;;;;;26.55;14.75;;;-0.50;77.40;;;;;;5051262;28;20045;-62
2020/12/10 12:07:31;;;;;;;24.60;13.93;;;-0.50;77.20;;;;;;5057132;28;20069;-63
2020/12/10 12:09:56;;;;;;;29.17;17.00;;;-0.50;77.70;;;;;;5059264;28;20028;-64
2020/12/10 12:12:22;;;;;;;29.20;15.93;;;-0.50;77.80;;;;;;5049723;28;20097;-64
2020/12/10 12:14:48;;;;;;;24.88;14.10;;;-0.50;77.30;;;;;;5048517;28;20767;-64
2020/12/10 12:17:14;;;;;;;29.42;16.27;;;-0.50;77.60;;;;;;5057254;28;21533;-64
2020/12/10 12:19:39;;;;;;;31.13;14.98;;;-0.50;78.10;;;;;;5049660;28;20054;-64
2020/12/10 12:22:05;;;;;;;32.95;14.90;;;-0.50;78.00;;;;;;5052302;28;20789;-64
2020/12/10 12:24:31;;;;;;;27.98;16.83;;;-0.50;77.90;;;;;;5051873;28;20048;-64
2020/12/10 12:26:56;;;;;;;30.48;15.60;;;-0.40;78.00;;;;;;5058594;28;20048;-64
2020/12/10 12:29:22;;;;;;;26.50;13.90;;;-0.40;77.80;;;;;;5053805;28;20074;-64
2020/12/10 12:31:48;;;;;;;26.67;15.05;;;-0.50;77.90;;;;;;5056947;28;20107;-64
2020/12/10 12:34:15;;;;;;;29.42;15.93;;;-0.50;78.80;;;;;;5051156;28;20393;-64
2020/12/10 12:36:41;;;;;;;27.48;17.20;;;-0.50;78.30;;;;;;5056002;28;20024;-64
2020/12/10 12:39:07;;;;;;;33.60;18.35;;;-0.50;78.30;;;;;;5052600;28;20025;-64